createdAt,value
2017-10-30T00:01:19.707Z,6.70
2017-10-30T00:03:46.640Z,6.40
2017-10-30T00:06:13.552Z,6.40
2017-10-30T00:08:39.733Z,6.40
2017-10-30T00:11:06.024Z,6.40
2017-10-30T00:13:32.200Z,6.30
2017-10-30T00:15:58.383Z,6.20
2017-10-30T00:18:24.551Z,6.20
2017-10-30T00:20:50.779Z,6.10
2017-10-30T00:23:16.945Z,6.00
2017-10-30T00:25:43.431Z,6.10
2017-10-30T00:28:09.621Z,6.20
2017-10-30T00:30:35.817Z,6.20
2017-10-30T00:33:02.025Z,6.10
2017-10-30T00:35:28.232Z,6.00
2017-10-30T00:37:55.141Z,5.90
2017-10-30T00:40:22.143Z,5.90
2017-10-30T00:42:48.299Z,5.80
2017-10-30T00:45:14.482Z,5.80
2017-10-30T00:47:41.420Z,5.90
2017-10-30T00:50:08.355Z,5.90
2017-10-30T00:52:35.268Z,5.90
2017-10-30T00:55:01.690Z,5.80
2017-10-30T00:57:27.862Z,5.90
2017-10-30T00:59:54.776Z,5.90
2017-10-30T01:02:21.715Z,5.90
2017-10-30T01:04:47.931Z,5.90
2017-10-30T01:07:14.090Z,5.90
2017-10-30T01:09:41.039Z,5.90
2017-10-30T01:12:07.217Z,5.90
2017-10-30T01:14:33.391Z,6.00
2017-10-30T01:16:59.579Z,5.90
2017-10-30T01:19:25.757Z,5.80
2017-10-30T01:21:52.668Z,6.10
2017-10-30T01:24:19.582Z,6.00
2017-10-30T01:26:45.808Z,6.00
2017-10-30T01:29:12.090Z,6.00
2017-10-30T01:31:38.273Z,6.10
2017-10-30T01:34:04.476Z,6.10
2017-10-30T01:36:31.018Z,6.00
2017-10-30T01:38:57.192Z,6.00
2017-10-30T01:41:23.408Z,6.00
2017-10-30T01:43:49.648Z,6.00
2017-10-30T01:46:15.843Z,6.00
2017-10-30T01:48:42.016Z,5.90
2017-10-30T01:51:08.223Z,6.00
2017-10-30T01:53:34.404Z,6.00
2017-10-30T01:56:00.616Z,6.10
2017-10-30T01:58:28.399Z,6.00
2017-10-30T02:00:54.592Z,6.00
2017-10-30T02:03:21.532Z,6.00
2017-10-30T02:05:47.727Z,6.00
2017-10-30T02:08:13.912Z,6.00
2017-10-30T02:10:40.083Z,5.90
2017-10-30T02:13:06.293Z,5.90
2017-10-30T02:15:32.468Z,6.00
2017-10-30T02:17:58.645Z,6.00
2017-10-30T02:20:24.895Z,6.00
2017-10-30T02:22:51.092Z,6.00
2017-10-30T02:25:17.316Z,5.90
2017-10-30T02:27:43.529Z,5.80
2017-10-30T02:30:09.728Z,5.90
2017-10-30T02:32:35.947Z,5.90
2017-10-30T02:35:02.164Z,5.80
2017-10-30T02:37:28.343Z,5.80
2017-10-30T02:39:54.566Z,5.80
2017-10-30T02:42:21.023Z,5.80
2017-10-30T02:44:47.222Z,5.80
2017-10-30T02:47:14.152Z,5.80
2017-10-30T02:49:40.339Z,5.70
2017-10-30T02:52:06.530Z,5.70
2017-10-30T02:54:32.772Z,5.70
2017-10-30T02:56:58.959Z,5.80
2017-10-30T02:59:25.137Z,5.80
2017-10-30T03:01:51.554Z,5.80
2017-10-30T03:04:17.743Z,5.80
2017-10-30T03:06:43.947Z,5.70
2017-10-30T03:09:10.145Z,5.60
2017-10-30T03:11:36.332Z,5.70
2017-10-30T03:14:03.279Z,5.80
2017-10-30T03:16:30.227Z,5.80
2017-10-30T03:18:57.176Z,5.80
2017-10-30T03:21:24.452Z,5.80
2017-10-30T03:23:50.635Z,5.80
2017-10-30T03:26:16.820Z,5.60
2017-10-30T03:28:43.058Z,5.60
2017-10-30T03:31:09.297Z,5.60
2017-10-30T03:33:35.493Z,5.50
2017-10-30T03:36:01.743Z,5.70
2017-10-30T03:38:27.942Z,5.80
2017-10-30T03:40:54.127Z,5.90
2017-10-30T03:43:20.304Z,6.00
2017-10-30T03:45:46.527Z,6.00
2017-10-30T03:48:12.713Z,6.00
2017-10-30T03:50:38.891Z,6.00
2017-10-30T03:53:05.528Z,5.90
2017-10-30T03:55:31.729Z,6.00
2017-10-30T03:57:58.077Z,5.90
2017-10-30T04:00:24.305Z,5.80
2017-10-30T04:02:50.509Z,5.90
2017-10-30T04:05:17.435Z,5.60
2017-10-30T04:07:44.656Z,5.60
2017-10-30T04:10:10.815Z,5.60
2017-10-30T04:12:37.768Z,5.70
2017-10-30T04:15:05.352Z,5.60
2017-10-30T04:17:32.180Z,5.60
2017-10-30T04:19:59.077Z,5.60
2017-10-30T04:22:25.298Z,5.60
2017-10-30T04:24:51.540Z,5.50
2017-10-30T04:27:17.708Z,5.50
2017-10-30T04:29:43.930Z,5.50
2017-10-30T04:32:10.860Z,5.30
2017-10-30T04:34:37.044Z,5.20
2017-10-30T04:37:03.238Z,5.30
2017-10-30T04:39:29.408Z,5.30
2017-10-30T04:41:55.588Z,5.30
2017-10-30T04:44:22.652Z,5.10
2017-10-30T04:46:48.812Z,4.90
2017-10-30T04:49:14.972Z,4.80
2017-10-30T04:51:41.936Z,4.60
2017-10-30T04:54:08.083Z,4.60
2017-10-30T04:56:34.253Z,4.60
2017-10-30T04:59:00.458Z,4.50
2017-10-30T05:01:26.625Z,4.50
2017-10-30T05:03:54.446Z,4.40
2017-10-30T05:06:22.400Z,4.40
2017-10-30T05:08:48.644Z,4.30
2017-10-30T05:11:15.734Z,4.30
2017-10-30T05:13:42.878Z,4.30
2017-10-30T05:16:10.211Z,4.60
2017-10-30T05:18:36.433Z,4.60
2017-10-30T05:21:03.380Z,4.70
2017-10-30T05:23:30.562Z,4.70
2017-10-30T05:25:56.795Z,4.90
2017-10-30T05:28:23.713Z,4.90
2017-10-30T05:30:49.913Z,4.90
2017-10-30T05:33:16.088Z,4.90
2017-10-30T05:35:43.005Z,5.10
2017-10-30T05:38:09.973Z,5.00
2017-10-30T05:40:36.888Z,5.00
2017-10-30T05:43:03.077Z,5.00
2017-10-30T05:45:29.449Z,5.20
2017-10-30T05:47:55.621Z,5.30
2017-10-30T05:50:22.540Z,5.10
2017-10-30T05:52:48.759Z,5.10
2017-10-30T05:55:14.924Z,5.10
2017-10-30T05:57:41.080Z,5.00
2017-10-30T06:00:07.278Z,5.10
2017-10-30T06:02:33.452Z,5.10
2017-10-30T06:04:59.633Z,4.90
2017-10-30T06:07:25.818Z,4.80
2017-10-30T06:09:52.021Z,4.70
2017-10-30T06:12:18.199Z,4.70
2017-10-30T06:14:45.127Z,4.80
2017-10-30T06:17:11.298Z,4.80
2017-10-30T06:19:37.455Z,4.70
2017-10-30T06:22:03.646Z,4.70
2017-10-30T06:24:29.817Z,4.50
2017-10-30T06:26:55.970Z,4.40
2017-10-30T06:29:23.752Z,4.20
2017-10-30T06:31:50.662Z,4.00
2017-10-30T06:34:16.825Z,4.00
2017-10-30T06:36:43.025Z,3.90
2017-10-30T06:39:09.950Z,3.80
2017-10-30T06:41:36.116Z,3.80
2017-10-30T06:44:03.035Z,3.70
2017-10-30T06:46:29.187Z,3.70
2017-10-30T06:48:56.096Z,3.80
2017-10-30T06:51:22.569Z,3.70
2017-10-30T06:53:48.729Z,3.80
2017-10-30T06:56:14.891Z,3.70
2017-10-30T06:58:41.077Z,3.60
2017-10-30T07:01:07.348Z,3.60
2017-10-30T07:03:33.525Z,3.70
2017-10-30T07:06:00.145Z,3.70
2017-10-30T07:08:26.483Z,3.70
2017-10-30T07:10:52.864Z,3.70
2017-10-30T07:13:19.082Z,3.70
2017-10-30T07:15:45.322Z,3.70
2017-10-30T07:18:12.473Z,3.90
2017-10-30T07:20:39.734Z,3.90
2017-10-30T07:23:05.980Z,4.10
2017-10-30T07:25:32.975Z,4.30
2017-10-30T07:27:59.249Z,4.30
2017-10-30T07:30:26.193Z,4.20
2017-10-30T07:32:53.167Z,4.40
2017-10-30T07:35:19.360Z,4.30
2017-10-30T07:37:46.317Z,4.50
2017-10-30T07:40:13.312Z,4.60
2017-10-30T07:42:39.509Z,4.60
2017-10-30T07:45:05.695Z,4.50
2017-10-30T07:47:31.892Z,4.60
2017-10-30T07:49:58.508Z,4.70
2017-10-30T07:52:24.883Z,4.80
2017-10-30T07:54:51.438Z,4.90
2017-10-30T07:57:18.529Z,5.20
2017-10-30T07:59:44.819Z,5.20
2017-10-30T08:02:12.119Z,5.20
2017-10-30T08:04:38.482Z,5.20
2017-10-30T08:07:04.808Z,5.30
2017-10-30T08:09:31.127Z,5.30
2017-10-30T08:11:57.697Z,5.30
2017-10-30T08:14:25.542Z,5.40
2017-10-30T08:16:51.909Z,5.40
2017-10-30T08:19:20.034Z,5.40
2017-10-30T08:21:46.966Z,5.50
2017-10-30T08:24:16.726Z,5.60
2017-10-30T08:26:47.685Z,5.60
2017-10-30T08:29:22.753Z,5.60
2017-10-30T08:31:52.831Z,5.60
2017-10-30T08:34:19.301Z,5.80
2017-10-30T08:36:45.709Z,5.80
2017-10-30T08:39:14.564Z,5.90
2017-10-30T08:41:49.422Z,6.00
2017-10-30T08:44:26.989Z,5.90
2017-10-30T08:46:58.082Z,6.10
2017-10-30T08:56:03.104Z,6.40
2017-10-30T09:01:16.450Z,6.30
2017-10-30T09:03:44.297Z,6.40
2017-10-30T09:06:12.296Z,6.50
2017-10-30T09:08:39.141Z,6.50
2017-10-30T09:11:14.815Z,6.60
2017-10-30T09:13:41.412Z,6.60
2017-10-30T09:16:08.353Z,6.80
2017-10-30T09:18:34.607Z,6.70
2017-10-30T09:21:00.798Z,6.80
2017-10-30T09:23:27.006Z,6.90
2017-10-30T09:25:53.967Z,7.10
2017-10-30T09:28:20.155Z,7.00
2017-10-30T09:30:46.352Z,7.10
2017-10-30T09:33:13.315Z,7.20
2017-10-30T09:35:39.520Z,7.20
2017-10-30T09:38:06.475Z,7.40
2017-10-30T09:40:32.738Z,7.30
2017-10-30T09:42:58.925Z,7.50
2017-10-30T09:45:25.882Z,7.50
2017-10-30T09:47:52.123Z,7.50
2017-10-30T09:50:18.387Z,7.50
2017-10-30T09:52:44.577Z,7.70
2017-10-30T09:55:10.819Z,7.70
2017-10-30T09:57:37.858Z,7.70
2017-10-30T10:00:04.056Z,7.80
2017-10-30T10:02:31.344Z,8.00
2017-10-30T10:04:57.543Z,8.00
2017-10-30T10:07:25.775Z,8.20
2017-10-30T10:09:53.918Z,8.40
2017-10-30T10:12:20.924Z,8.30
2017-10-30T10:14:47.881Z,8.40
2017-10-30T10:17:15.112Z,8.40
2017-10-30T10:19:42.095Z,8.50
2017-10-30T10:22:08.288Z,8.50
2017-10-30T10:24:35.577Z,8.60
2017-10-30T10:27:01.789Z,8.70
2017-10-30T10:29:27.992Z,8.60
2017-10-30T10:31:55.384Z,8.60
2017-10-30T10:34:22.639Z,8.70
2017-10-30T10:36:49.079Z,8.70
2017-10-30T10:39:16.104Z,8.70
2017-10-30T10:41:42.541Z,8.70
2017-10-30T10:44:08.767Z,8.90
2017-10-30T10:46:35.820Z,8.90
2017-10-30T10:49:02.073Z,9.00
2017-10-30T10:51:29.137Z,8.90
2017-10-30T10:53:56.252Z,9.10
2017-10-30T10:56:22.443Z,9.20
2017-10-30T10:58:49.404Z,9.60
2017-10-30T11:01:16.347Z,9.60
2017-10-30T11:03:43.525Z,9.70
2017-10-30T11:06:09.728Z,9.60
2017-10-30T11:08:36.650Z,9.80
2017-10-30T11:11:02.910Z,9.80
2017-10-30T11:13:30.412Z,9.80
2017-10-30T11:15:56.675Z,9.90
2017-10-30T11:18:23.786Z,10.10
2017-10-30T11:20:50.784Z,10.00
2017-10-30T11:23:16.963Z,10.00
2017-10-30T11:25:43.163Z,9.90
2017-10-30T11:28:09.485Z,9.90
2017-10-30T11:30:35.778Z,9.80
2017-10-30T11:33:02.722Z,9.80
2017-10-30T11:35:30.709Z,9.80
2017-10-30T11:37:57.249Z,9.80
2017-10-30T11:40:24.173Z,9.90
2017-10-30T11:42:50.521Z,9.90
2017-10-30T11:45:16.695Z,9.80
2017-10-30T11:47:42.869Z,9.70
2017-10-30T11:50:09.797Z,9.60
2017-10-30T11:52:36.714Z,9.70
2017-10-30T11:55:02.916Z,9.70
2017-10-30T11:57:30.007Z,10.00
2017-10-30T11:59:57.045Z,10.00
2017-10-30T12:02:23.227Z,10.00
2017-10-30T12:04:49.436Z,9.80
2017-10-30T12:07:16.486Z,9.80
2017-10-30T12:09:42.899Z,9.80
2017-10-30T12:12:09.856Z,10.10
2017-10-30T12:14:36.073Z,10.10
2017-10-30T12:17:03.248Z,10.60
2017-10-30T12:19:29.419Z,10.50
2017-10-30T12:21:56.461Z,10.50
2017-10-30T12:24:23.434Z,10.50
2017-10-30T12:26:50.171Z,10.40
2017-10-30T12:29:16.352Z,10.50
2017-10-30T12:31:43.327Z,10.50
2017-10-30T12:34:09.864Z,10.70
2017-10-30T12:36:36.045Z,10.70
2017-10-30T12:39:02.303Z,11.00
2017-10-30T12:41:28.576Z,11.50
2017-10-30T12:43:55.577Z,11.70
2017-10-30T12:46:21.800Z,11.70
2017-10-30T12:48:47.977Z,12.00
2017-10-30T12:51:14.902Z,12.50
2017-10-30T12:53:41.102Z,12.50
2017-10-30T12:56:07.346Z,12.40
2017-10-30T12:58:33.544Z,12.40
2017-10-30T13:00:59.723Z,12.80
2017-10-30T13:03:25.954Z,13.30
2017-10-30T13:05:52.888Z,13.40
2017-10-30T13:08:19.053Z,13.40
2017-10-30T13:10:45.350Z,13.20
2017-10-30T13:13:11.541Z,13.40
2017-10-30T13:15:37.742Z,13.50
2017-10-30T13:18:03.928Z,13.20
2017-10-30T13:20:30.148Z,12.80
2017-10-30T13:22:56.321Z,12.30
2017-10-30T13:25:22.507Z,12.30
2017-10-30T13:27:48.685Z,12.20
2017-10-30T13:30:14.844Z,11.80
2017-10-30T13:32:41.003Z,11.40
2017-10-30T13:35:07.919Z,11.10
2017-10-30T13:37:34.090Z,11.10
2017-10-30T13:40:00.265Z,11.00
2017-10-30T13:42:26.621Z,10.80
2017-10-30T13:44:53.547Z,10.40
2017-10-30T13:47:19.725Z,10.40
2017-10-30T13:49:45.915Z,10.20
2017-10-30T13:52:12.109Z,10.20
2017-10-30T13:54:38.296Z,10.10
2017-10-30T13:57:04.498Z,10.00
2017-10-30T13:59:30.656Z,10.00
2017-10-30T14:01:56.832Z,9.90
2017-10-30T14:04:23.317Z,9.90
2017-10-30T14:06:49.495Z,9.90
2017-10-30T14:09:15.678Z,9.80
2017-10-30T14:11:41.998Z,9.80
2017-10-30T14:14:08.174Z,9.80
2017-10-30T14:16:34.352Z,9.80
2017-10-30T14:19:00.550Z,9.80
2017-10-30T14:21:27.483Z,9.70
2017-10-30T14:23:53.661Z,9.70
2017-10-30T14:26:19.857Z,9.70
2017-10-30T14:28:46.781Z,9.70
2017-10-30T14:31:12.984Z,9.70
2017-10-30T14:33:39.193Z,9.70
2017-10-30T14:36:05.374Z,9.60
2017-10-30T14:38:31.564Z,9.60
2017-10-30T14:40:57.784Z,9.60
2017-10-30T14:43:23.988Z,9.60
2017-10-30T14:45:50.184Z,9.60
2017-10-30T14:48:16.395Z,9.70
2017-10-30T14:50:42.602Z,9.80
2017-10-30T14:53:08.792Z,9.80
2017-10-30T14:55:34.997Z,9.80
2017-10-30T14:58:01.965Z,9.80
2017-10-30T15:00:28.165Z,9.70
2017-10-30T15:02:54.580Z,9.60
2017-10-30T15:05:20.763Z,9.60
2017-10-30T15:07:46.972Z,9.50
2017-10-30T15:10:14.096Z,9.40
2017-10-30T15:12:40.270Z,9.40
2017-10-30T15:15:06.571Z,9.40
2017-10-30T15:17:33.685Z,9.40
2017-10-30T15:19:59.887Z,9.30
2017-10-30T15:22:26.083Z,9.30
2017-10-30T15:24:52.743Z,9.20
2017-10-30T15:27:19.755Z,9.10
2017-10-30T15:29:46.692Z,9.00
2017-10-30T15:32:13.701Z,9.00
2017-10-30T15:34:39.884Z,9.00
2017-10-30T15:37:07.364Z,8.90
2017-10-30T15:39:33.565Z,8.90
2017-10-30T15:42:00.516Z,8.80
2017-10-30T15:44:26.724Z,8.80
2017-10-30T15:46:53.698Z,8.70
2017-10-30T15:49:19.887Z,8.70
2017-10-30T15:51:46.451Z,8.60
2017-10-30T15:54:12.652Z,8.60
2017-10-30T15:56:39.624Z,8.60
2017-10-30T15:59:06.087Z,8.60
2017-10-30T16:01:32.265Z,8.60
2017-10-30T16:03:59.178Z,8.60
2017-10-30T16:06:25.396Z,8.50
2017-10-30T16:08:51.555Z,8.70
2017-10-30T16:11:17.712Z,8.60
2017-10-30T16:13:43.883Z,8.60
2017-10-30T16:16:10.076Z,8.50
2017-10-30T16:18:36.244Z,8.50
2017-10-30T16:21:02.459Z,8.50
2017-10-30T16:23:28.633Z,8.40
2017-10-30T16:25:55.540Z,8.40
2017-10-30T16:28:21.737Z,8.40
2017-10-30T16:30:47.941Z,8.50
2017-10-30T16:33:14.127Z,8.40
2017-10-30T16:35:40.322Z,8.40
2017-10-30T16:38:06.496Z,8.30
2017-10-30T16:40:32.665Z,8.30
2017-10-30T16:42:58.876Z,8.20
2017-10-30T16:45:25.073Z,8.10
2017-10-30T16:47:51.255Z,8.10
2017-10-30T16:50:17.480Z,8.20
2017-10-30T16:52:43.641Z,8.20
2017-10-30T16:55:09.856Z,8.30
2017-10-30T16:57:36.258Z,8.20
2017-10-30T17:00:02.474Z,8.20
2017-10-30T17:02:29.396Z,8.10
2017-10-30T17:04:56.332Z,8.00
2017-10-30T17:07:22.512Z,8.00
2017-10-30T17:09:48.692Z,8.10
2017-10-30T17:12:15.259Z,8.20
2017-10-30T17:14:41.414Z,8.20
2017-10-30T17:17:07.600Z,8.30
2017-10-30T17:19:33.805Z,8.30
2017-10-30T17:21:59.955Z,8.20
2017-10-30T17:24:26.856Z,8.20
2017-10-30T17:26:53.028Z,8.20
2017-10-30T17:29:19.213Z,8.10
2017-10-30T17:31:45.377Z,8.00
2017-10-30T17:34:11.665Z,7.90
2017-10-30T17:36:37.850Z,8.00
2017-10-30T17:39:04.038Z,7.90
2017-10-30T17:41:30.191Z,8.10
2017-10-30T17:43:56.386Z,7.90
2017-10-30T17:46:22.644Z,7.90
2017-10-30T17:48:49.536Z,7.80
2017-10-30T17:51:15.686Z,7.80
2017-10-30T17:53:41.872Z,7.60
2017-10-30T17:56:08.045Z,7.50
2017-10-30T17:58:34.233Z,7.50
2017-10-30T18:01:00.416Z,7.40
2017-10-30T18:03:26.585Z,7.40
2017-10-30T18:05:52.757Z,7.30
2017-10-30T18:08:19.695Z,7.20
2017-10-30T18:10:45.876Z,7.20
2017-10-30T18:13:12.053Z,7.10
2017-10-30T18:15:39.338Z,7.10
2017-10-30T18:18:05.539Z,7.00
2017-10-30T18:20:32.468Z,7.00
2017-10-30T18:22:59.938Z,7.00
2017-10-30T18:25:26.175Z,7.00
2017-10-30T18:27:52.567Z,7.00
2017-10-30T18:30:18.756Z,6.90
2017-10-30T18:32:45.311Z,6.90
2017-10-30T18:35:11.513Z,6.90
2017-10-30T18:37:38.015Z,6.80
2017-10-30T18:40:04.955Z,6.80
2017-10-30T18:42:31.876Z,6.80
2017-10-30T18:44:58.030Z,6.70
2017-10-30T18:47:24.957Z,6.80
2017-10-30T18:49:51.133Z,6.70
2017-10-30T18:52:17.334Z,6.80
2017-10-30T18:54:44.259Z,6.80
2017-10-30T18:57:10.453Z,6.80
2017-10-30T18:59:36.767Z,6.80
2017-10-30T19:02:02.975Z,6.80
2017-10-30T19:04:29.172Z,6.80
2017-10-30T19:06:56.428Z,6.80
2017-10-30T19:09:22.612Z,6.80
2017-10-30T19:11:48.787Z,6.80
2017-10-30T19:14:15.816Z,6.80
2017-10-30T19:16:41.970Z,6.80
2017-10-30T19:19:08.885Z,6.80
2017-10-30T19:21:35.140Z,6.80
2017-10-30T19:24:02.058Z,6.70
2017-10-30T19:26:28.228Z,6.70
2017-10-30T19:28:54.436Z,6.70
2017-10-30T19:31:21.367Z,6.70
2017-10-30T19:33:47.552Z,6.60
2017-10-30T19:36:13.987Z,6.60
2017-10-30T19:38:40.161Z,6.60
2017-10-30T19:41:07.089Z,6.70
2017-10-30T19:43:33.335Z,6.60
2017-10-30T19:45:59.513Z,6.60
2017-10-30T19:48:25.683Z,6.60
2017-10-30T19:50:52.601Z,6.60
2017-10-30T19:53:18.783Z,6.50
2017-10-30T19:55:45.240Z,6.60
2017-10-30T19:58:11.445Z,6.50
2017-10-30T20:00:37.620Z,6.50
2017-10-30T20:03:03.834Z,6.50
2017-10-30T20:05:36.074Z,6.40
2017-10-30T20:08:02.392Z,6.50
2017-10-30T20:10:34.809Z,6.40
2017-10-30T20:13:00.974Z,6.40
2017-10-30T20:15:27.930Z,6.40
2017-10-30T20:17:54.864Z,6.50
2017-10-30T20:20:21.768Z,6.50
2017-10-30T20:22:47.972Z,6.50
2017-10-30T20:25:14.201Z,6.50
2017-10-30T20:27:40.384Z,6.60
2017-10-30T20:30:06.567Z,6.60
2017-10-30T20:32:32.773Z,6.60
2017-10-30T20:34:58.958Z,6.60
2017-10-30T20:37:25.128Z,6.60
2017-10-30T20:39:51.322Z,6.50
2017-10-30T20:42:18.268Z,6.50
2017-10-30T20:44:45.205Z,6.50
2017-10-30T20:47:11.420Z,6.60
2017-10-30T20:49:37.605Z,6.60
2017-10-30T20:52:03.781Z,6.60
2017-10-30T20:54:29.972Z,6.60
2017-10-30T20:56:56.137Z,6.60
2017-10-30T20:59:22.310Z,6.60
2017-10-30T21:01:49.563Z,6.60
2017-10-30T21:04:15.728Z,6.60
2017-10-30T21:06:41.964Z,6.70
2017-10-30T21:09:09.756Z,6.70
2017-10-30T21:11:36.662Z,6.70
2017-10-30T21:14:02.896Z,6.70
2017-10-30T21:16:29.107Z,6.80
2017-10-30T21:18:56.020Z,6.70
2017-10-30T21:21:22.203Z,6.70
2017-10-30T21:23:48.404Z,6.70
2017-10-30T21:26:14.576Z,6.70
2017-10-30T21:28:41.496Z,6.60
2017-10-30T21:31:08.090Z,6.60
2017-10-30T21:33:34.255Z,6.60
2017-10-30T21:36:00.427Z,6.60
2017-10-30T21:38:27.483Z,6.60
2017-10-30T21:40:53.659Z,6.60
2017-10-30T21:43:19.837Z,6.70
2017-10-30T21:45:46.056Z,6.90
2017-10-30T21:48:12.241Z,6.80
2017-10-30T21:50:38.413Z,6.80
2017-10-30T21:53:04.780Z,6.70
2017-10-30T21:55:30.965Z,6.80
2017-10-30T21:57:57.116Z,6.90
2017-10-30T22:00:23.324Z,7.00
2017-10-30T22:02:49.496Z,6.90
2017-10-30T22:05:15.689Z,6.80
2017-10-30T22:07:41.887Z,6.70
2017-10-30T22:10:08.795Z,6.60
2017-10-30T22:12:35.016Z,6.60
2017-10-30T22:15:01.192Z,6.60
2017-10-30T22:17:27.443Z,6.60
2017-10-30T22:19:53.789Z,6.60
2017-10-30T22:22:19.967Z,6.60
2017-10-30T22:24:46.880Z,6.50
2017-10-30T22:27:13.183Z,6.50
2017-10-30T22:29:39.356Z,6.50
2017-10-30T22:32:05.549Z,6.40
2017-10-30T22:34:31.728Z,6.40
2017-10-30T22:36:58.648Z,6.50
2017-10-30T22:39:24.816Z,6.40
2017-10-30T22:41:51.017Z,6.50
2017-10-30T22:44:17.937Z,6.50
2017-10-30T22:46:44.121Z,6.50
2017-10-30T22:49:10.298Z,6.40
2017-10-30T22:51:36.496Z,6.40
2017-10-30T22:54:02.699Z,6.40
2017-10-30T22:56:28.888Z,6.40
2017-10-30T22:58:55.057Z,6.40
2017-10-30T23:01:21.337Z,6.40
2017-10-30T23:03:47.520Z,6.30
2017-10-30T23:06:13.701Z,6.30
2017-10-30T23:08:40.641Z,6.20
2017-10-30T23:11:06.824Z,6.20
2017-10-30T23:13:33.013Z,6.20
2017-10-30T23:16:00.029Z,6.20
2017-10-30T23:18:26.210Z,6.20
2017-10-30T23:20:52.383Z,6.20
2017-10-30T23:23:18.588Z,6.20
2017-10-30T23:25:45.509Z,6.30
2017-10-30T23:28:11.685Z,6.30
2017-10-30T23:30:38.157Z,6.30
2017-10-30T23:33:04.333Z,6.30
2017-10-30T23:35:30.542Z,6.30
2017-10-30T23:37:56.754Z,6.30
2017-10-30T23:40:22.938Z,6.30
2017-10-30T23:42:49.875Z,6.30
2017-10-30T23:45:16.060Z,6.30
2017-10-30T23:47:42.247Z,6.40
2017-10-30T23:50:09.165Z,6.40
2017-10-30T23:52:35.331Z,6.30
2017-10-30T23:55:01.499Z,6.40
2017-10-30T23:57:27.689Z,6.40
2017-10-30T23:59:53.875Z,6.40
